sensor_id;sensor_type;location;lat;lon;timestamp;pressure;altitude;pressure_sealevel;temperature;humidity
7109;BME280;29079;41.930;25.558;2024-02-21T00:01:46;100350.19;;;5.67;100.00
7109;BME280;29079;41.930;25.558;2024-02-21T00:04:34;100352.31;;;5.76;100.00
7109;BME280;29079;41.930;25.558;2024-02-21T00:07:23;100358.31;;;5.64;100.00
7109;BME280;29079;41.930;25.558;2024-02-21T00:10:12;100357.88;;;5.55;100.00
7109;BME280;29079;41.930;25.558;2024-02-21T00:13:01;100354.53;;;5.52;100.00
7109;BME280;29079;41.930;25.558;2024-02-21T00:15:49;100363.06;;;5.57;100.00
7109;BME280;29079;41.930;25.558;2024-02-21T00:18:37;100365.25;;;5.33;100.00
7109;BME280;29079;41.930;25.558;2024-02-21T00:21:25;100364.91;;;5.23;100.00
7109;BME280;29079;41.930;25.558;2024-02-21T00:24:13;100364.84;;;5.40;100.00
7109;BME280;29079;41.930;25.558;2024-02-21T00:27:03;100363.91;;;5.41;100.00
7109;BME280;29079;41.930;25.558;2024-02-21T00:29:51;100360.84;;;5.33;100.00
7109;BME280;29079;41.930;25.558;2024-02-21T00:32:39;100344.25;;;5.30;100.00
7109;BME280;29079;41.930;25.558;2024-02-21T00:35:27;100357.09;;;5.37;100.00
7109;BME280;29079;41.930;25.558;2024-02-21T00:38:15;100364.31;;;5.34;100.00
7109;BME280;29079;41.930;25.558;2024-02-21T00:41:03;100357.69;;;5.43;100.00
7109;BME280;29079;41.930;25.558;2024-02-21T00:43:53;100359.72;;;5.37;100.00
7109;BME280;29079;41.930;25.558;2024-02-21T00:46:41;100356.72;;;5.28;100.00
7109;BME280;29079;41.930;25.558;2024-02-21T00:49:29;100354.16;;;5.26;100.00
7109;BME280;29079;41.930;25.558;2024-02-21T00:52:17;100362.72;;;5.14;100.00
7109;BME280;29079;41.930;25.558;2024-02-21T00:55:06;100345.09;;;5.14;100.00
7109;BME280;29079;41.930;25.558;2024-02-21T00:57:55;100351.53;;;5.42;100.00
7109;BME280;29079;41.930;25.558;2024-02-21T01:00:45;100329.41;;;5.59;100.00
7109;BME280;29079;41.930;25.558;2024-02-21T01:03:33;100346.75;;;5.49;100.00
7109;BME280;29079;41.930;25.558;2024-02-21T01:06:21;100336.78;;;5.54;100.00
7109;BME280;29079;41.930;25.558;2024-02-21T01:09:11;100340.53;;;5.50;100.00
7109;BME280;29079;41.930;25.558;2024-02-21T01:11:59;100340.88;;;5.91;100.00
7109;BME280;29079;41.930;25.558;2024-02-21T01:14:47;100344.91;;;6.15;100.00
7109;BME280;29079;41.930;25.558;2024-02-21T01:17:37;100348.41;;;5.99;100.00
7109;BME280;29079;41.930;25.558;2024-02-21T01:20:27;100276.53;;;5.41;100.00
7109;BME280;29079;41.930;25.558;2024-02-21T01:23:15;100338.88;;;5.47;100.00
7109;BME280;29079;41.930;25.558;2024-02-21T01:26:03;100279.75;;;4.99;100.00
7109;BME280;29079;41.930;25.558;2024-02-21T01:28:54;100343.59;;;5.42;100.00
7109;BME280;29079;41.930;25.558;2024-02-21T01:31:43;100343.75;;;5.39;100.00
7109;BME280;29079;41.930;25.558;2024-02-21T01:34:32;100329.09;;;5.49;100.00
7109;BME280;29079;41.930;25.558;2024-02-21T01:37:20;100335.75;;;5.56;100.00
7109;BME280;29079;41.930;25.558;2024-02-21T01:40:09;100332.84;;;5.93;100.00
7109;BME280;29079;41.930;25.558;2024-02-21T01:42:58;100333.78;;;5.92;100.00
7109;BME280;29079;41.930;25.558;2024-02-21T01:45:49;100328.06;;;5.68;100.00
7109;BME280;29079;41.930;25.558;2024-02-21T01:48:37;100299.69;;;5.38;100.00
7109;BME280;29079;41.930;25.558;2024-02-21T01:51:28;100318.81;;;5.59;100.00
7109;BME280;29079;41.930;25.558;2024-02-21T01:54:17;100326.25;;;5.84;100.00
7109;BME280;29079;41.930;25.558;2024-02-21T01:57:06;100317.13;;;5.74;100.00
7109;BME280;29079;41.930;25.558;2024-02-21T01:59:54;100316.16;;;5.59;100.00
7109;BME280;29079;41.930;25.558;2024-02-21T02:02:42;100325.66;;;5.63;100.00
7109;BME280;29079;41.930;25.558;2024-02-21T02:05:32;100286.19;;;5.43;100.00
7109;BME280;29079;41.930;25.558;2024-02-21T02:08:22;100306.00;;;5.51;100.00
7109;BME280;29079;41.930;25.558;2024-02-21T02:11:10;100322.91;;;5.65;100.00
7109;BME280;29079;41.930;25.558;2024-02-21T02:13:58;100319.53;;;5.63;100.00
7109;BME280;29079;41.930;25.558;2024-02-21T02:16:46;100322.16;;;5.63;100.00
7109;BME280;29079;41.930;25.558;2024-02-21T02:19:35;100318.59;;;5.64;100.00
7109;BME280;29079;41.930;25.558;2024-02-21T02:22:28;100311.66;;;5.61;100.00
7109;BME280;29079;41.930;25.558;2024-02-21T02:25:18;100318.16;;;5.55;100.00
7109;BME280;29079;41.930;25.558;2024-02-21T02:28:07;100308.56;;;5.69;100.00
7109;BME280;29079;41.930;25.558;2024-02-21T02:30:55;100318.81;;;5.59;100.00
7109;BME280;29079;41.930;25.558;2024-02-21T02:33:43;100322.44;;;5.58;100.00
7109;BME280;29079;41.930;25.558;2024-02-21T02:36:32;100317.13;;;5.58;100.00
7109;BME280;29079;41.930;25.558;2024-02-21T02:39:21;100321.41;;;5.61;100.00
7109;BME280;29079;41.930;25.558;2024-02-21T02:42:10;100321.22;;;5.48;100.00
7109;BME280;29079;41.930;25.558;2024-02-21T02:44:58;100307.91;;;5.33;100.00
7109;BME280;29079;41.930;25.558;2024-02-21T02:47:46;100320.13;;;5.36;100.00
7109;BME280;29079;41.930;25.558;2024-02-21T02:50:34;100312.06;;;5.21;100.00
7109;BME280;29079;41.930;25.558;2024-02-21T02:53:22;100304.88;;;5.23;100.00
7109;BME280;29079;41.930;25.558;2024-02-21T02:56:14;100251.31;;;5.02;100.00
7109;BME280;29079;41.930;25.558;2024-02-21T02:59:04;100302.09;;;5.58;100.00
7109;BME280;29079;41.930;25.558;2024-02-21T03:01:51;100306.00;;;5.51;100.00
7109;BME280;29079;41.930;25.558;2024-02-21T03:04:40;100308.41;;;5.40;100.00
7109;BME280;29079;41.930;25.558;2024-02-21T03:07:28;100304.81;;;5.25;100.00
7109;BME280;29079;41.930;25.558;2024-02-21T03:10:16;100311.63;;;5.29;100.00
7109;BME280;29079;41.930;25.558;2024-02-21T03:13:05;100321.31;;;5.46;100.00
7109;BME280;29079;41.930;25.558;2024-02-21T03:15:54;100312.25;;;5.50;100.00
7109;BME280;29079;41.930;25.558;2024-02-21T03:18:42;100321.81;;;5.37;100.00
7109;BME280;29079;41.930;25.558;2024-02-21T03:21:30;100317.59;;;5.33;100.00
7109;BME280;29079;41.930;25.558;2024-02-21T03:24:18;100318.66;;;5.30;100.00
7109;BME280;29079;41.930;25.558;2024-02-21T03:27:07;100320.34;;;5.47;100.00
7109;BME280;29079;41.930;25.558;2024-02-21T03:29:55;100320.78;;;5.55;100.00
7109;BME280;29079;41.930;25.558;2024-02-21T03:32:46;100320.69;;;5.89;100.00
7109;BME280;29079;41.930;25.558;2024-02-21T03:35:34;100303.97;;;5.72;100.00
7109;BME280;29079;41.930;25.558;2024-02-21T03:38:22;100317.78;;;5.93;100.00
7109;BME280;29079;41.930;25.558;2024-02-21T03:41:10;100317.31;;;5.71;100.00
7109;BME280;29079;41.930;25.558;2024-02-21T03:43:58;100314.75;;;5.85;100.00
7109;BME280;29079;41.930;25.558;2024-02-21T03:46:46;100321.91;;;5.67;100.00
7109;BME280;29079;41.930;25.558;2024-02-21T03:49:36;100322.25;;;5.45;100.00
7109;BME280;29079;41.930;25.558;2024-02-21T03:52:24;100317.53;;;5.34;100.00
7109;BME280;29079;41.930;25.558;2024-02-21T03:55:12;100325.06;;;5.58;100.00
7109;BME280;29079;41.930;25.558;2024-02-21T03:58:00;100325.16;;;5.72;100.00
7109;BME280;29079;41.930;25.558;2024-02-21T04:00:48;100299.00;;;5.34;100.00
7109;BME280;29079;41.930;25.558;2024-02-21T04:03:36;100312.50;;;5.78;100.00
7109;BME280;29079;41.930;25.558;2024-02-21T04:06:25;100327.03;;;5.86;100.00
7109;BME280;29079;41.930;25.558;2024-02-21T04:09:13;100324.81;;;5.47;100.00
7109;BME280;29079;41.930;25.558;2024-02-21T04:12:02;100325.06;;;5.42;100.00
7109;BME280;29079;41.930;25.558;2024-02-21T04:14:50;100327.59;;;5.28;100.00
7109;BME280;29079;41.930;25.558;2024-02-21T04:17:38;100328.38;;;5.30;100.00
7109;BME280;29079;41.930;25.558;2024-02-21T04:20:26;100308.16;;;5.29;100.00
7109;BME280;29079;41.930;25.558;2024-02-21T04:23:15;100335.06;;;5.69;100.00
7109;BME280;29079;41.930;25.558;2024-02-21T04:26:03;100321.03;;;5.35;100.00
7109;BME280;29079;41.930;25.558;2024-02-21T04:28:51;100333.47;;;5.33;100.00
7109;BME280;29079;41.930;25.558;2024-02-21T04:31:40;100340.94;;;5.42;100.00
7109;BME280;29079;41.930;25.558;2024-02-21T04:34:29;100333.19;;;5.71;100.00
7109;BME280;29079;41.930;25.558;2024-02-21T04:37:18;100254.44;;;5.43;100.00
7109;BME280;29079;41.930;25.558;2024-02-21T04:40:08;100331.81;;;5.80;100.00
7109;BME280;29079;41.930;25.558;2024-02-21T04:42:57;100336.50;;;5.74;100.00
7109;BME280;29079;41.930;25.558;2024-02-21T04:45:45;100333.50;;;5.65;100.00
7109;BME280;29079;41.930;25.558;2024-02-21T04:48:33;100334.66;;;5.92;100.00
7109;BME280;29079;41.930;25.558;2024-02-21T04:51:20;100325.56;;;5.81;100.00
7109;BME280;29079;41.930;25.558;2024-02-21T04:54:09;100330.69;;;5.84;100.00
7109;BME280;29079;41.930;25.558;2024-02-21T04:56:59;100334.09;;;5.22;100.00
7109;BME280;29079;41.930;25.558;2024-02-21T04:59:47;100326.69;;;4.95;100.00
7109;BME280;29079;41.930;25.558;2024-02-21T05:02:35;100341.19;;;5.21;100.00
7109;BME280;29079;41.930;25.558;2024-02-21T05:05:23;100344.81;;;5.52;100.00
7109;BME280;29079;41.930;25.558;2024-02-21T05:08:11;100353.94;;;5.13;100.00
7109;BME280;29079;41.930;25.558;2024-02-21T05:10:59;100352.34;;;5.27;100.00
7109;BME280;29079;41.930;25.558;2024-02-21T05:13:49;100355.50;;;5.67;100.00
7109;BME280;29079;41.930;25.558;2024-02-21T05:16:38;100349.94;;;5.71;100.00
7109;BME280;29079;41.930;25.558;2024-02-21T05:19:27;100364.34;;;5.50;100.00
7109;BME280;29079;41.930;25.558;2024-02-21T05:22:15;100351.38;;;5.45;100.00
7109;BME280;29079;41.930;25.558;2024-02-21T05:25:05;100367.31;;;5.28;100.00
7109;BME280;29079;41.930;25.558;2024-02-21T05:27:53;100367.16;;;5.47;100.00
7109;BME280;29079;41.930;25.558;2024-02-21T05:30:44;100362.22;;;5.56;100.00
7109;BME280;29079;41.930;25.558;2024-02-21T05:33:32;100374.00;;;5.51;100.00
7109;BME280;29079;41.930;25.558;2024-02-21T05:36:20;100385.91;;;5.75;100.00
7109;BME280;29079;41.930;25.558;2024-02-21T05:39:08;100376.41;;;5.55;100.00
7109;BME280;29079;41.930;25.558;2024-02-21T05:41:56;100377.72;;;5.31;100.00
7109;BME280;29079;41.930;25.558;2024-02-21T05:44:44;100387.94;;;5.21;100.00
7109;BME280;29079;41.930;25.558;2024-02-21T05:47:34;100382.75;;;5.35;100.00
7109;BME280;29079;41.930;25.558;2024-02-21T05:50:22;100382.88;;;5.50;100.00
7109;BME280;29079;41.930;25.558;2024-02-21T05:53:10;100386.66;;;5.28;100.00
7109;BME280;29079;41.930;25.558;2024-02-21T05:55:58;100389.66;;;5.22;100.00
7109;BME280;29079;41.930;25.558;2024-02-21T05:58:48;100390.81;;;5.16;100.00
7109;BME280;29079;41.930;25.558;2024-02-21T06:01:36;100395.44;;;5.13;100.00
7109;BME280;29079;41.930;25.558;2024-02-21T06:04:26;100394.94;;;5.22;100.00
7109;BME280;29079;41.930;25.558;2024-02-21T06:07:14;100383.72;;;5.17;100.00
7109;BME280;29079;41.930;25.558;2024-02-21T06:10:02;100395.03;;;5.20;100.00
7109;BME280;29079;41.930;25.558;2024-02-21T06:12:50;100405.38;;;5.74;100.00
7109;BME280;29079;41.930;25.558;2024-02-21T06:15:38;100399.97;;;5.60;100.00
7109;BME280;29079;41.930;25.558;2024-02-21T06:18:26;100402.91;;;5.71;100.00
7109;BME280;29079;41.930;25.558;2024-02-21T06:21:16;100394.44;;;5.65;100.00
7109;BME280;29079;41.930;25.558;2024-02-21T06:24:04;100401.25;;;5.53;100.00
7109;BME280;29079;41.930;25.558;2024-02-21T06:26:52;100380.81;;;5.39;100.00
7109;BME280;29079;41.930;25.558;2024-02-21T06:29:40;100411.16;;;5.49;100.00
7109;BME280;29079;41.930;25.558;2024-02-21T06:32:28;100403.31;;;5.48;100.00
7109;BME280;29079;41.930;25.558;2024-02-21T06:35:16;100416.53;;;5.48;100.00
7109;BME280;29079;41.930;25.558;2024-02-21T06:38:06;100409.53;;;5.47;100.00
7109;BME280;29079;41.930;25.558;2024-02-21T06:40:55;100419.59;;;5.56;100.00
7109;BME280;29079;41.930;25.558;2024-02-21T06:43:45;100424.81;;;5.57;100.00
7109;BME280;29079;41.930;25.558;2024-02-21T06:46:33;100423.13;;;5.56;100.00
7109;BME280;29079;41.930;25.558;2024-02-21T06:49:21;100416.31;;;5.68;100.00
7109;BME280;29079;41.930;25.558;2024-02-21T06:52:09;100410.47;;;5.62;100.00
7109;BME280;29079;41.930;25.558;2024-02-21T06:54:59;100418.44;;;5.78;100.00
7109;BME280;29079;41.930;25.558;2024-02-21T06:57:47;100397.13;;;5.47;100.00
7109;BME280;29079;41.930;25.558;2024-02-21T07:00:35;100421.31;;;5.57;100.00
7109;BME280;29079;41.930;25.558;2024-02-21T07:03:23;100425.81;;;5.72;100.00
7109;BME280;29079;41.930;25.558;2024-02-21T07:06:11;100419.94;;;5.99;100.00
7109;BME280;29079;41.930;25.558;2024-02-21T07:08:59;100421.75;;;5.99;100.00
7109;BME280;29079;41.930;25.558;2024-02-21T07:11:49;100423.03;;;6.07;100.00
7109;BME280;29079;41.930;25.558;2024-02-21T07:14:37;100424.94;;;5.88;100.00
7109;BME280;29079;41.930;25.558;2024-02-21T07:17:25;100416.81;;;5.75;100.00
7109;BME280;29079;41.930;25.558;2024-02-21T07:20:13;100415.63;;;5.81;100.00
7109;BME280;29079;41.930;25.558;2024-02-21T07:23:01;100417.78;;;5.90;100.00
7109;BME280;29079;41.930;25.558;2024-02-21T07:25:49;100417.44;;;5.96;100.00
7109;BME280;29079;41.930;25.558;2024-02-21T07:28:39;100418.84;;;6.19;100.00
7109;BME280;29079;41.930;25.558;2024-02-21T07:31:27;100428.75;;;6.16;100.00
7109;BME280;29079;41.930;25.558;2024-02-21T07:34:15;100432.94;;;6.36;100.00
7109;BME280;29079;41.930;25.558;2024-02-21T07:37:03;100433.63;;;6.23;100.00
7109;BME280;29079;41.930;25.558;2024-02-21T07:39:51;100430.81;;;6.26;100.00
7109;BME280;29079;41.930;25.558;2024-02-21T07:42:40;100426.03;;;6.33;100.00
7109;BME280;29079;41.930;25.558;2024-02-21T07:45:29;100431.22;;;6.51;100.00
7109;BME280;29079;41.930;25.558;2024-02-21T07:48:17;100431.47;;;6.76;100.00
7109;BME280;29079;41.930;25.558;2024-02-21T07:51:05;100434.47;;;6.86;100.00
7109;BME280;29079;41.930;25.558;2024-02-21T07:53:53;100437.13;;;6.86;100.00
7109;BME280;29079;41.930;25.558;2024-02-21T07:56:42;100413.28;;;6.70;100.00
7109;BME280;29079;41.930;25.558;2024-02-21T07:59:30;100429.56;;;6.94;100.00
7109;BME280;29079;41.930;25.558;2024-02-21T08:02:19;100432.75;;;6.85;100.00
7109;BME280;29079;41.930;25.558;2024-02-21T08:05:08;100422.72;;;6.60;100.00
7109;BME280;29079;41.930;25.558;2024-02-21T08:07:56;100435.44;;;6.69;100.00
7109;BME280;29079;41.930;25.558;2024-02-21T08:10:44;100429.16;;;6.86;100.00
7109;BME280;29079;41.930;25.558;2024-02-21T08:13:32;100397.88;;;6.77;100.00
7109;BME280;29079;41.930;25.558;2024-02-21T08:16:20;100440.66;;;7.01;100.00
7109;BME280;29079;41.930;25.558;2024-02-21T08:19:10;100431.53;;;6.91;100.00
7109;BME280;29079;41.930;25.558;2024-02-21T08:21:59;100442.31;;;6.88;100.00
7109;BME280;29079;41.930;25.558;2024-02-21T08:24:46;100436.09;;;6.89;100.00
7109;BME280;29079;41.930;25.558;2024-02-21T08:27:35;100436.31;;;7.00;100.00
7109;BME280;29079;41.930;25.558;2024-02-21T08:30:23;100437.16;;;7.01;100.00
7109;BME280;29079;41.930;25.558;2024-02-21T08:33:10;100437.81;;;7.04;100.00
7109;BME280;29079;41.930;25.558;2024-02-21T08:36:00;100439.72;;;7.02;100.00
7109;BME280;29079;41.930;25.558;2024-02-21T08:38:49;100412.25;;;7.03;100.00
7109;BME280;29079;41.930;25.558;2024-02-21T08:41:37;100443.75;;;7.38;100.00
7109;BME280;29079;41.930;25.558;2024-02-21T08:44:42;100444.31;;;7.72;100.00
7109;BME280;29079;41.930;25.558;2024-02-21T08:47:30;100436.16;;;7.90;100.00
7109;BME280;29079;41.930;25.558;2024-02-21T08:50:19;100440.31;;;8.08;100.00
7109;BME280;29079;41.930;25.558;2024-02-21T08:53:16;100439.91;;;8.14;100.00
7109;BME280;29079;41.930;25.558;2024-02-21T08:56:05;100439.97;;;8.27;100.00
7109;BME280;29079;41.930;25.558;2024-02-21T08:58:54;100443.84;;;8.36;100.00
7109;BME280;29079;41.930;25.558;2024-02-21T09:01:42;100437.97;;;8.45;100.00
7109;BME280;29079;41.930;25.558;2024-02-21T09:04:30;100440.63;;;8.31;100.00
7109;BME280;29079;41.930;25.558;2024-02-21T09:07:19;100437.97;;;8.31;100.00
7109;BME280;29079;41.930;25.558;2024-02-21T09:10:09;100440.22;;;8.37;100.00
7109;BME280;29079;41.930;25.558;2024-02-21T09:12:57;100436.34;;;8.70;100.00
7109;BME280;29079;41.930;25.558;2024-02-21T09:15:45;100437.59;;;8.64;99.00
7109;BME280;29079;41.930;25.558;2024-02-21T09:18:33;100433.19;;;8.91;97.76
7109;BME280;29079;41.930;25.558;2024-02-21T09:21:22;100429.38;;;8.95;97.35
7109;BME280;29079;41.930;25.558;2024-02-21T09:24:10;100415.06;;;8.70;97.20
7109;BME280;29079;41.930;25.558;2024-02-21T09:26:59;100415.50;;;8.89;97.04
7109;BME280;29079;41.930;25.558;2024-02-21T09:29:47;100430.03;;;9.11;95.96
7109;BME280;29079;41.930;25.558;2024-02-21T09:32:35;100425.25;;;9.03;96.01
7109;BME280;29079;41.930;25.558;2024-02-21T09:35:24;100431.97;;;9.09;95.31
7109;BME280;29079;41.930;25.558;2024-02-21T09:38:13;100433.41;;;8.87;95.54
7109;BME280;29079;41.930;25.558;2024-02-21T09:41:15;100434.50;;;9.23;94.51
7109;BME280;29079;41.930;25.558;2024-02-21T09:44:13;100428.53;;;9.07;94.37
7109;BME280;29079;41.930;25.558;2024-02-21T09:47:03;100430.38;;;9.19;94.04
7109;BME280;29079;41.930;25.558;2024-02-21T09:49:52;100427.50;;;9.22;93.78
7109;BME280;29079;41.930;25.558;2024-02-21T09:52:44;100417.47;;;9.39;93.36
7109;BME280;29079;41.930;25.558;2024-02-21T09:55:33;100410.31;;;9.39;92.59
7109;BME280;29079;41.930;25.558;2024-02-21T09:58:22;100421.19;;;9.23;92.10
7109;BME280;29079;41.930;25.558;2024-02-21T10:01:15;100421.09;;;9.12;93.18
7109;BME280;29079;41.930;25.558;2024-02-21T10:04:19;100397.53;;;8.93;93.53
7109;BME280;29079;41.930;25.558;2024-02-21T10:07:08;100417.97;;;9.05;93.56
7109;BME280;29079;41.930;25.558;2024-02-21T10:10:01;100402.13;;;9.17;92.78
7109;BME280;29079;41.930;25.558;2024-02-21T10:12:49;100403.38;;;8.98;92.77
7109;BME280;29079;41.930;25.558;2024-02-21T10:15:38;100408.09;;;9.20;93.47
7109;BME280;29079;41.930;25.558;2024-02-21T10:18:27;100406.19;;;9.22;92.50
7109;BME280;29079;41.930;25.558;2024-02-21T10:21:17;100403.84;;;9.05;91.89
7109;BME280;29079;41.930;25.558;2024-02-21T10:24:05;100395.94;;;9.03;91.90
7109;BME280;29079;41.930;25.558;2024-02-21T10:26:59;100397.84;;;9.01;88.47
7109;BME280;29079;41.930;25.558;2024-02-21T10:29:49;100386.34;;;9.01;89.86
7109;BME280;29079;41.930;25.558;2024-02-21T10:32:48;100376.44;;;9.03;89.09
7109;BME280;29079;41.930;25.558;2024-02-21T10:35:38;100378.16;;;9.04;90.08
7109;BME280;29079;41.930;25.558;2024-02-21T10:38:26;100370.25;;;8.89;90.01
7109;BME280;29079;41.930;25.558;2024-02-21T10:41:14;100378.97;;;8.92;89.39
7109;BME280;29079;41.930;25.558;2024-02-21T10:44:05;100368.88;;;8.97;88.32
7109;BME280;29079;41.930;25.558;2024-02-21T10:46:53;100367.16;;;8.96;87.89
7109;BME280;29079;41.930;25.558;2024-02-21T10:49:44;100362.72;;;9.09;88.65
7109;BME280;29079;41.930;25.558;2024-02-21T10:52:45;100349.13;;;9.51;86.17
7109;BME280;29079;41.930;25.558;2024-02-21T10:55:38;100346.00;;;9.70;82.85
7109;BME280;29079;41.930;25.558;2024-02-21T10:58:30;100326.34;;;9.84;80.25
7109;BME280;29079;41.930;25.558;2024-02-21T11:01:19;100323.34;;;10.13;77.55
7109;BME280;29079;41.930;25.558;2024-02-21T11:04:09;100277.94;;;10.25;75.86
7109;BME280;29079;41.930;25.558;2024-02-21T11:07:00;100319.69;;;10.62;74.35
7109;BME280;29079;41.930;25.558;2024-02-21T11:09:56;100314.38;;;10.85;71.10
7109;BME280;29079;41.930;25.558;2024-02-21T11:12:45;100312.59;;;10.96;71.58
7109;BME280;29079;41.930;25.558;2024-02-21T11:15:34;100309.19;;;10.94;70.13
7109;BME280;29079;41.930;25.558;2024-02-21T11:18:25;100271.75;;;10.60;65.78
7109;BME280;29079;41.930;25.558;2024-02-21T11:21:13;100297.06;;;11.02;66.72
7109;BME280;29079;41.930;25.558;2024-02-21T11:24:01;100300.44;;;11.15;67.62
7109;BME280;29079;41.930;25.558;2024-02-21T11:26:51;100277.41;;;11.14;67.54
7109;BME280;29079;41.930;25.558;2024-02-21T11:29:43;100290.38;;;10.96;65.23
7109;BME280;29079;41.930;25.558;2024-02-21T11:32:31;100279.44;;;11.10;62.07
7109;BME280;29079;41.930;25.558;2024-02-21T11:35:20;100278.81;;;11.29;58.89
7109;BME280;29079;41.930;25.558;2024-02-21T11:38:09;100276.53;;;11.36;59.41
7109;BME280;29079;41.930;25.558;2024-02-21T11:41:01;100278.25;;;11.14;61.17
7109;BME280;29079;41.930;25.558;2024-02-21T11:43:51;100276.06;;;10.97;61.21
7109;BME280;29079;41.930;25.558;2024-02-21T11:46:39;100278.81;;;10.84;61.36
7109;BME280;29079;41.930;25.558;2024-02-21T11:49:28;100267.03;;;10.64;63.47
7109;BME280;29079;41.930;25.558;2024-02-21T11:52:17;100270.78;;;10.61;66.00
7109;BME280;29079;41.930;25.558;2024-02-21T11:55:07;100258.06;;;10.76;65.22
7109;BME280;29079;41.930;25.558;2024-02-21T11:57:56;100262.94;;;10.94;64.38
7109;BME280;29079;41.930;25.558;2024-02-21T12:00:45;100269.38;;;10.91;64.86
7109;BME280;29079;41.930;25.558;2024-02-21T12:03:33;100235.63;;;10.68;64.41
7109;BME280;29079;41.930;25.558;2024-02-21T12:06:23;100213.41;;;10.67;64.07
7109;BME280;29079;41.930;25.558;2024-02-21T12:09:14;100249.47;;;10.84;63.30
7109;BME280;29079;41.930;25.558;2024-02-21T12:12:03;100247.13;;;10.68;63.04
7109;BME280;29079;41.930;25.558;2024-02-21T12:14:55;100242.88;;;10.66;62.23
7109;BME280;29079;41.930;25.558;2024-02-21T12:17:46;100242.41;;;10.60;59.84
7109;BME280;29079;41.930;25.558;2024-02-21T12:20:35;100221.53;;;10.66;59.99
7109;BME280;29079;41.930;25.558;2024-02-21T12:23:26;100236.09;;;10.84;61.17
7109;BME280;29079;41.930;25.558;2024-02-21T12:26:14;100229.78;;;10.74;56.68
7109;BME280;29079;41.930;25.558;2024-02-21T12:29:03;100238.66;;;10.97;60.19
7109;BME280;29079;41.930;25.558;2024-02-21T12:31:51;100215.25;;;10.89;57.42
7109;BME280;29079;41.930;25.558;2024-02-21T12:34:42;100237.56;;;11.00;58.34
7109;BME280;29079;41.930;25.558;2024-02-21T12:37:40;100234.41;;;11.06;54.41
7109;BME280;29079;41.930;25.558;2024-02-21T12:40:28;100224.47;;;10.85;56.98
7109;BME280;29079;41.930;25.558;2024-02-21T12:43:19;100232.47;;;10.85;58.15
7109;BME280;29079;41.930;25.558;2024-02-21T12:46:09;100228.56;;;11.01;58.62
7109;BME280;29079;41.930;25.558;2024-02-21T12:48:57;100194.84;;;10.77;59.12
7109;BME280;29079;41.930;25.558;2024-02-21T12:51:47;100218.25;;;10.85;58.23
7109;BME280;29079;41.930;25.558;2024-02-21T12:54:35;100220.09;;;10.84;56.32
7109;BME280;29079;41.930;25.558;2024-02-21T12:57:24;100210.88;;;11.00;55.62
7109;BME280;29079;41.930;25.558;2024-02-21T13:00:14;100212.53;;;11.12;57.70
7109;BME280;29079;41.930;25.558;2024-02-21T13:03:03;100205.84;;;11.29;57.53
7109;BME280;29079;41.930;25.558;2024-02-21T13:05:51;100200.63;;;11.27;54.55
7109;BME280;29079;41.930;25.558;2024-02-21T13:08:41;100206.81;;;11.28;52.82
7109;BME280;29079;41.930;25.558;2024-02-21T13:11:31;100207.34;;;11.54;53.54
7109;BME280;29079;41.930;25.558;2024-02-21T13:14:19;100205.78;;;11.52;54.27
7109;BME280;29079;41.930;25.558;2024-02-21T13:17:09;100161.59;;;11.04;56.31
7109;BME280;29079;41.930;25.558;2024-02-21T13:19:57;100204.25;;;11.26;54.94
7109;BME280;29079;41.930;25.558;2024-02-21T13:22:45;100190.97;;;11.04;55.48
7109;BME280;29079;41.930;25.558;2024-02-21T13:25:35;100080.56;;;10.37;55.13
7109;BME280;29079;41.930;25.558;2024-02-21T13:28:23;100192.25;;;11.09;54.79
7109;BME280;29079;41.930;25.558;2024-02-21T13:31:11;100204.66;;;11.22;55.40
7109;BME280;29079;41.930;25.558;2024-02-21T13:33:59;100197.47;;;11.22;54.98
7109;BME280;29079;41.930;25.558;2024-02-21T13:36:47;100196.25;;;11.26;55.47
7109;BME280;29079;41.930;25.558;2024-02-21T13:39:35;100187.41;;;11.14;55.55
7109;BME280;29079;41.930;25.558;2024-02-21T13:42:24;100178.91;;;11.21;55.53
7109;BME280;29079;41.930;25.558;2024-02-21T13:45:14;100177.69;;;11.25;53.23
7109;BME280;29079;41.930;25.558;2024-02-21T13:48:03;100178.50;;;11.37;52.05
7109;BME280;29079;41.930;25.558;2024-02-21T13:50:53;100171.69;;;11.32;52.66
7109;BME280;29079;41.930;25.558;2024-02-21T13:53:41;100165.50;;;11.32;53.41
7109;BME280;29079;41.930;25.558;2024-02-21T13:56:29;100170.72;;;11.33;52.93
7109;BME280;29079;41.930;25.558;2024-02-21T13:59:18;100166.88;;;11.26;54.20
7109;BME280;29079;41.930;25.558;2024-02-21T14:02:06;100146.41;;;11.04;57.09
7109;BME280;29079;41.930;25.558;2024-02-21T14:04:55;100163.13;;;11.18;61.38
7109;BME280;29079;41.930;25.558;2024-02-21T14:07:43;100152.06;;;11.11;58.05
7109;BME280;29079;41.930;25.558;2024-02-21T14:10:31;100160.31;;;11.19;56.01
7109;BME280;29079;41.930;25.558;2024-02-21T14:13:20;100161.19;;;11.20;54.50
7109;BME280;29079;41.930;25.558;2024-02-21T14:16:11;100150.53;;;11.08;54.68
7109;BME280;29079;41.930;25.558;2024-02-21T14:19:00;100151.84;;;11.14;54.62
7109;BME280;29079;41.930;25.558;2024-02-21T14:21:48;100152.69;;;11.14;55.08
7109;BME280;29079;41.930;25.558;2024-02-21T14:24:37;100148.44;;;11.12;54.95
7109;BME280;29079;41.930;25.558;2024-02-21T14:27:24;100145.19;;;11.08;53.39
7109;BME280;29079;41.930;25.558;2024-02-21T14:30:13;100147.47;;;11.02;54.24
7109;BME280;29079;41.930;25.558;2024-02-21T14:33:02;100142.38;;;11.10;54.66
7109;BME280;29079;41.930;25.558;2024-02-21T14:35:51;100144.81;;;11.02;55.98
7109;BME280;29079;41.930;25.558;2024-02-21T14:38:39;100134.13;;;11.02;55.56
7109;BME280;29079;41.930;25.558;2024-02-21T14:41:28;100141.56;;;10.98;56.96
7109;BME280;29079;41.930;25.558;2024-02-21T14:44:16;100137.56;;;10.92;57.97